LICG Airport Information

Runway Information
Runway 03 Length 4003 ft width 98 ft
Elevation 620 ft Threshold 0 ft Heading 28
Runway 21 Length 4003 ft Width 98 ft
Elevation 591 ft Threshold 0 ft Heading 208
Runway 08 Length 5495 ft width 148 ft
Elevation 635 ft Threshold 0 ft Heading 76
Runway 26 Length 5495 ft Width 148 ft
Elevation 603 ft Threshold 0 ft Heading 256
Airport Frequencies
Type TWR Name TWR Frequency 118.45 MHZ
Airport Navaids
Type VOR-DME Name Pantelleria Frequency 116100 KHZ
Type NDB Name Pantelleria Frequency 335 KHZ
Airport Weather Information & NOTAM
ADDS - METARS form results

(0210 UTC 22 May 2022)
Data provider http://aviationweather.gov/metar/data/
 
Forecast for: LICG (PANTELLERIA(IT-A, IT)
Text: TAF LICG 211700Z 2118/2203 23008KT CAVOK
Forecast period: 1800 UTC 21 May 2022 to 0300 UTC 22 May 2022
Forecast type: FROM: standard forecast or significant change
Winds: from the SW (230 degrees) at 9 MPH (8 knots; 4.1 m/s)
Visibility: 6 or more miles (10+ km)
Ceiling: unknown
Clouds: missing
Weather: NSW  (no significant weather)